createdAt,value
2022-09-23T00:01:12.665Z,2.40
2022-09-23T00:03:42.074Z,2.35
2022-09-23T00:06:11.801Z,2.45
2022-09-23T00:08:40.023Z,2.42
2022-09-23T00:11:17.369Z,2.60
2022-09-23T00:13:46.843Z,2.40
2022-09-23T00:16:17.065Z,2.78
2022-09-23T00:18:44.416Z,2.80
2022-09-23T00:21:13.856Z,2.50
2022-09-23T00:23:42.955Z,2.35
2022-09-23T00:26:12.495Z,2.70
2022-09-23T00:28:40.560Z,2.58
2022-09-23T00:31:09.889Z,2.55
2022-09-23T00:33:36.843Z,2.55
2022-09-23T00:36:07.075Z,2.50
2022-09-23T00:38:34.248Z,2.63
2022-09-23T00:41:02.256Z,2.80
2022-09-23T00:43:38.186Z,2.30
2022-09-23T00:46:07.926Z,2.58
2022-09-23T00:48:35.671Z,2.42
2022-09-23T00:51:02.330Z,2.40
2022-09-23T00:53:29.348Z,2.40
2022-09-23T00:56:04.167Z,2.35
2022-09-23T00:58:34.263Z,2.30
2022-09-23T01:01:02.356Z,2.40
2022-09-23T01:03:29.605Z,2.05
2022-09-23T01:05:57.306Z,2.10
2022-09-23T01:08:25.156Z,2.30
2022-09-23T01:10:57.820Z,2.25
2022-09-23T01:13:52.001Z,2.20
2022-09-23T01:16:45.426Z,2.30
2022-09-23T01:19:30.870Z,2.20
2022-09-23T01:22:06.697Z,2.10
2022-09-23T01:24:59.640Z,2.47
2022-09-23T01:27:55.899Z,2.20
2022-09-23T01:30:44.107Z,2.28
2022-09-23T01:33:29.598Z,2.10
2022-09-23T01:36:13.372Z,2.05
2022-09-23T01:38:43.865Z,1.98
2022-09-23T01:41:30.070Z,1.80
2022-09-23T01:44:08.780Z,1.92
2022-09-23T01:46:41.692Z,2.33
2022-09-23T01:49:25.318Z,1.90
2022-09-23T01:52:03.996Z,1.92
2022-09-23T01:54:41.064Z,1.73
2022-09-23T01:57:31.915Z,1.70
2022-09-23T02:00:11.750Z,1.60
2022-09-23T02:02:49.685Z,2.00
2022-09-23T02:05:26.096Z,1.80
2022-09-23T02:08:14.004Z,1.80
2022-09-23T02:10:56.480Z,1.90
2022-09-23T02:13:40.032Z,1.75
2022-09-23T02:16:21.840Z,1.95
2022-09-23T02:18:58.174Z,1.70
2022-09-23T02:21:33.905Z,1.60
2022-09-23T02:24:34.867Z,1.70
2022-09-23T02:27:30.379Z,1.65
2022-09-23T02:30:17.203Z,1.80
2022-09-23T02:33:07.924Z,1.90
2022-09-23T02:35:44.167Z,2.40
2022-09-23T02:38:20.636Z,2.33
2022-09-23T02:40:52.986Z,2.15
2022-09-23T02:45:52.333Z,2.13
2022-09-23T02:48:27.097Z,3.10
2022-09-23T02:50:54.465Z,2.10
2022-09-23T02:53:24.213Z,2.00
2022-09-23T02:55:51.169Z,2.35
2022-09-23T02:58:17.946Z,2.22
2022-09-23T03:01:11.604Z,2.10
2022-09-23T03:03:44.302Z,3.25
2022-09-23T03:06:47.741Z,2.70
2022-09-23T03:09:28.001Z,2.83
2022-09-23T03:12:06.068Z,2.40
2022-09-23T03:14:40.281Z,2.60
2022-09-23T03:17:48.886Z,2.20
2022-09-23T03:20:57.891Z,2.30
2022-09-23T03:23:31.372Z,2.30
2022-09-23T03:26:02.478Z,2.17
2022-09-23T03:28:29.770Z,2.42
2022-09-23T03:31:00.106Z,2.15
2022-09-23T03:33:28.993Z,2.30
2022-09-23T03:36:23.927Z,2.47
2022-09-23T03:38:54.787Z,2.40
2022-09-23T03:41:33.169Z,2.30
2022-09-23T03:44:00.169Z,2.40
2022-09-23T03:46:30.073Z,2.63
2022-09-23T03:49:06.556Z,2.50
2022-09-23T03:51:33.171Z,2.25
2022-09-23T03:53:59.801Z,2.67
2022-09-23T03:56:26.367Z,2.70
2022-09-23T03:58:53.041Z,2.95
2022-09-23T04:01:19.666Z,2.30
2022-09-23T04:03:46.465Z,2.60
2022-09-23T04:06:13.425Z,2.83
2022-09-23T04:08:40.046Z,2.15
2022-09-23T04:11:06.851Z,2.65
2022-09-23T04:13:33.767Z,2.33
2022-09-23T04:16:00.586Z,2.63
2022-09-23T04:18:27.289Z,2.40
2022-09-23T04:20:58.833Z,2.85
2022-09-23T04:23:27.319Z,2.80
2022-09-23T04:25:54.020Z,2.72
2022-09-23T04:28:21.524Z,2.70
2022-09-23T04:30:49.046Z,2.80
2022-09-23T04:33:17.019Z,2.75
2022-09-23T04:35:43.558Z,2.28
2022-09-23T04:38:13.325Z,2.55
2022-09-23T04:40:40.036Z,2.83
2022-09-23T04:43:10.547Z,2.60
2022-09-23T04:45:39.520Z,2.70
2022-09-23T04:48:06.087Z,2.90
2022-09-23T04:50:33.998Z,2.70
2022-09-23T04:53:01.915Z,2.72
2022-09-23T04:55:28.888Z,2.90
2022-09-23T04:57:55.637Z,3.15
2022-09-23T05:00:23.407Z,2.88
2022-09-23T05:02:50.879Z,4.15
2022-09-23T05:05:23.400Z,3.33
2022-09-23T05:10:17.923Z,3.45
2022-09-23T05:12:44.598Z,2.83
2022-09-23T05:15:11.455Z,2.80
2022-09-23T05:17:38.043Z,2.58
2022-09-23T05:20:05.431Z,2.75
2022-09-23T05:22:32.307Z,2.47
2022-09-23T05:25:00.369Z,2.88
2022-09-23T05:27:27.334Z,2.47
2022-09-23T05:29:54.021Z,3.13
2022-09-23T05:32:21.301Z,2.70
2022-09-23T05:34:47.926Z,3.08
2022-09-23T05:37:14.480Z,2.85
2022-09-23T05:39:41.068Z,2.60
2022-09-23T05:42:09.364Z,3.13
2022-09-23T05:44:36.082Z,2.67
2022-09-23T05:47:02.899Z,2.50
2022-09-23T05:49:42.841Z,2.30
2022-09-23T05:52:17.260Z,2.35
2022-09-23T05:54:43.846Z,2.58
2022-09-23T05:57:10.437Z,2.47
2022-09-23T05:59:38.142Z,2.28
2022-09-23T06:02:04.964Z,2.40
2022-09-23T06:04:31.657Z,2.10
2022-09-23T06:07:02.779Z,1.90
2022-09-23T06:09:34.105Z,2.20
2022-09-23T06:12:03.820Z,1.95
2022-09-23T06:14:30.401Z,2.00
2022-09-23T06:16:56.961Z,2.08
2022-09-23T06:19:23.589Z,1.95
2022-09-23T06:21:50.191Z,2.20
2022-09-23T06:24:21.357Z,2.00
2022-09-23T06:26:49.571Z,2.22
2022-09-23T06:29:16.219Z,2.38
2022-09-23T06:31:43.531Z,2.10
2022-09-23T06:34:14.554Z,2.28
2022-09-23T06:36:46.139Z,1.90
2022-09-23T06:39:14.702Z,2.15
2022-09-23T06:41:41.407Z,2.10
2022-09-23T06:44:08.078Z,2.08
2022-09-23T06:46:37.027Z,1.90
2022-09-23T06:49:03.771Z,2.17
2022-09-23T06:51:30.477Z,1.75
2022-09-23T06:53:56.995Z,1.70
2022-09-23T06:56:23.810Z,2.10
2022-09-23T06:58:52.261Z,1.75
2022-09-23T07:01:19.825Z,2.17
2022-09-23T07:03:49.943Z,1.63
2022-09-23T07:06:17.295Z,1.90
2022-09-23T07:08:47.089Z,2.15
2022-09-23T07:11:15.449Z,1.90
2022-09-23T07:13:43.010Z,1.90
2022-09-23T07:16:11.717Z,1.75
2022-09-23T07:18:39.004Z,2.22
2022-09-23T07:21:15.481Z,2.88
2022-09-23T07:23:47.444Z,2.40
2022-09-23T07:26:15.786Z,1.80
2022-09-23T07:28:42.777Z,2.20
2022-09-23T07:31:12.351Z,2.28
2022-09-23T07:33:43.839Z,2.33
2022-09-23T07:36:14.137Z,2.40
2022-09-23T07:38:45.119Z,2.30
2022-09-23T07:41:16.058Z,2.13
2022-09-23T07:43:44.186Z,2.03
2022-09-23T07:46:15.111Z,1.90
2022-09-23T07:48:42.955Z,2.00
2022-09-23T07:51:12.676Z,1.70
2022-09-23T07:53:39.531Z,1.85
2022-09-23T07:56:06.755Z,1.63
2022-09-23T07:58:34.781Z,1.70
2022-09-23T08:01:06.819Z,1.50
2022-09-23T08:03:33.702Z,1.40
2022-09-23T08:06:08.087Z,1.70
2022-09-23T08:08:35.686Z,1.50
2022-09-23T08:11:07.749Z,1.50
2022-09-23T08:13:34.594Z,1.60
2022-09-23T08:16:01.562Z,1.20
2022-09-23T08:18:28.475Z,1.40
2022-09-23T08:20:55.079Z,1.50
2022-09-23T08:23:21.834Z,1.50
2022-09-23T08:25:48.517Z,1.50
2022-09-23T08:28:18.531Z,1.50
2022-09-23T08:30:49.002Z,1.30
2022-09-23T08:33:20.967Z,1.30
2022-09-23T08:35:49.319Z,1.40
2022-09-23T08:38:16.543Z,1.42
2022-09-23T08:40:47.513Z,1.40
2022-09-23T08:43:33.099Z,1.42
2022-09-23T08:46:06.254Z,1.38
2022-09-23T08:48:38.517Z,1.35
2022-09-23T08:51:11.129Z,1.30
2022-09-23T08:53:39.281Z,1.20
2022-09-23T08:56:26.210Z,1.40
2022-09-23T08:59:29.155Z,1.20
2022-09-23T09:02:00.328Z,1.30
2022-09-23T09:04:39.361Z,1.30
2022-09-23T09:07:35.078Z,1.30
2022-09-23T09:10:18.721Z,1.20
2022-09-23T09:12:48.251Z,1.50
2022-09-23T09:15:26.680Z,1.55
2022-09-23T09:18:11.322Z,1.40
2022-09-23T09:20:48.978Z,1.67
2022-09-23T09:23:32.377Z,1.38
2022-09-23T09:26:01.952Z,1.20
2022-09-23T09:28:35.779Z,1.50
2022-09-23T09:31:16.435Z,1.52
2022-09-23T09:33:58.361Z,1.20
2022-09-23T09:36:45.106Z,1.40
2022-09-23T09:39:13.370Z,1.40
2022-09-23T09:41:48.700Z,1.35
2022-09-23T09:44:37.033Z,1.80
2022-09-23T09:47:27.054Z,1.20
2022-09-23T09:50:09.060Z,1.40
2022-09-23T09:52:40.706Z,1.45
2022-09-23T09:55:13.473Z,1.30
2022-09-23T09:57:44.143Z,1.88
2022-09-23T10:00:46.102Z,1.45
2022-09-23T10:03:20.339Z,1.30
2022-09-23T10:05:49.865Z,1.52
2022-09-23T10:08:37.797Z,1.33
2022-09-23T10:11:18.909Z,1.45
2022-09-23T10:14:14.277Z,1.42
2022-09-23T10:16:42.095Z,1.25
2022-09-23T10:19:18.549Z,1.45
2022-09-23T10:21:52.771Z,1.30
2022-09-23T10:24:25.951Z,2.00
2022-09-23T10:27:00.903Z,1.35
2022-09-23T10:29:39.268Z,1.40
2022-09-23T10:32:27.446Z,1.30
2022-09-23T10:35:09.256Z,1.27
2022-09-23T10:37:40.343Z,2.17
2022-09-23T10:40:37.893Z,1.20
2022-09-23T10:43:49.160Z,1.50
2022-09-23T10:46:39.085Z,1.45
2022-09-23T10:49:26.381Z,1.27
2022-09-23T10:51:56.022Z,1.70
2022-09-23T10:54:32.526Z,1.50
2022-09-23T10:57:24.412Z,1.50
2022-09-23T11:00:23.591Z,1.25
2022-09-23T11:03:33.802Z,1.40
2022-09-23T11:06:05.478Z,1.52
2022-09-23T11:08:59.899Z,1.80
2022-09-23T11:11:53.202Z,1.50
2022-09-23T11:14:25.678Z,1.50
2022-09-23T11:17:25.995Z,1.42
2022-09-23T11:20:16.945Z,1.40
2022-09-23T11:22:53.277Z,1.42
2022-09-23T11:25:39.581Z,1.50
2022-09-23T11:28:12.064Z,1.35
2022-09-23T11:30:46.243Z,1.60
2022-09-23T11:34:03.737Z,1.30
2022-09-23T11:36:52.345Z,1.35
2022-09-23T11:39:29.810Z,1.60
2022-09-23T11:41:59.362Z,1.45
2022-09-23T11:44:38.210Z,1.30
2022-09-23T11:47:10.870Z,1.60
2022-09-23T11:49:43.019Z,1.63
2022-09-23T11:52:19.709Z,1.38
2022-09-23T11:54:54.663Z,1.48
2022-09-23T11:57:53.453Z,1.50
2022-09-23T12:00:26.710Z,1.30
2022-09-23T12:03:18.594Z,1.15
2022-09-23T12:05:51.396Z,1.40
2022-09-23T12:08:25.146Z,1.48
2022-09-23T12:11:01.692Z,1.27
2022-09-23T12:13:40.783Z,1.23
2022-09-23T12:16:28.825Z,1.55
2022-09-23T12:19:04.563Z,1.50
2022-09-23T12:21:51.624Z,1.40
2022-09-23T12:24:52.491Z,1.63
2022-09-23T12:27:28.369Z,1.23
2022-09-23T12:30:01.584Z,1.52
2022-09-23T12:32:29.480Z,1.30
2022-09-23T12:34:56.608Z,1.58
2022-09-23T12:37:27.776Z,1.20
2022-09-23T12:39:59.762Z,1.27
2022-09-23T12:42:30.893Z,1.50
2022-09-23T12:45:32.760Z,1.17
2022-09-23T12:48:04.343Z,1.80
2022-09-23T12:50:51.151Z,1.63
2022-09-23T12:53:36.188Z,1.50
2022-09-23T12:56:16.046Z,1.40
2022-09-23T12:58:43.199Z,1.42
2022-09-23T13:01:17.228Z,1.42
2022-09-23T13:04:09.357Z,1.80
2022-09-23T13:07:06.636Z,1.40
2022-09-23T13:09:43.111Z,1.30
2022-09-23T13:12:39.195Z,1.30
2022-09-23T13:15:16.340Z,1.52
2022-09-23T13:17:43.130Z,1.60
2022-09-23T13:20:22.442Z,1.75
2022-09-23T13:22:49.505Z,1.55
2022-09-23T13:25:21.967Z,1.65
2022-09-23T13:27:54.374Z,1.60
2022-09-23T13:30:26.497Z,1.30
2022-09-23T13:33:14.280Z,1.38
2022-09-23T13:35:46.132Z,1.60
2022-09-23T13:38:27.008Z,1.48
2022-09-23T13:41:14.808Z,1.17
2022-09-23T13:43:43.065Z,1.30
2022-09-23T13:46:13.962Z,1.38
2022-09-23T13:48:44.346Z,1.40
2022-09-23T13:51:16.431Z,1.50
2022-09-23T13:53:43.049Z,1.55
2022-09-23T13:56:14.848Z,1.27
2022-09-23T13:58:42.083Z,1.60
2022-09-23T14:01:33.772Z,1.40
2022-09-23T14:04:02.443Z,1.52
2022-09-23T14:06:38.476Z,1.40
2022-09-23T14:09:06.490Z,1.50
2022-09-23T14:11:35.483Z,1.60
2022-09-23T14:14:07.734Z,1.52
2022-09-23T14:16:39.726Z,1.40
2022-09-23T14:19:09.371Z,1.40
2022-09-23T14:21:38.505Z,1.60
2022-09-23T14:24:11.162Z,1.55
2022-09-23T14:26:39.548Z,1.40
2022-09-23T14:29:12.117Z,1.55
2022-09-23T14:31:39.519Z,1.65
2022-09-23T14:34:06.281Z,1.42
2022-09-23T14:36:55.014Z,1.50
2022-09-23T14:39:22.793Z,1.50
2022-09-23T14:41:49.649Z,1.73
2022-09-23T14:44:23.160Z,1.65
2022-09-23T14:46:58.163Z,1.52
2022-09-23T14:49:25.267Z,1.70
2022-09-23T14:52:06.897Z,1.55
2022-09-23T14:54:52.164Z,1.88
2022-09-23T14:57:18.666Z,1.50
2022-09-23T14:59:59.209Z,1.70
2022-09-23T15:02:34.821Z,1.60
2022-09-23T15:05:30.446Z,1.70
2022-09-23T15:08:01.029Z,1.83
2022-09-23T15:10:37.487Z,2.30
2022-09-23T15:13:06.325Z,1.70
2022-09-23T15:15:33.342Z,2.15
2022-09-23T15:18:08.722Z,1.60
2022-09-23T15:20:36.092Z,1.60
2022-09-23T15:23:03.278Z,1.88
2022-09-23T15:25:40.763Z,1.98
2022-09-23T15:28:15.295Z,1.70
2022-09-23T15:30:42.051Z,2.20
2022-09-23T15:33:13.291Z,1.60
2022-09-23T15:35:45.457Z,1.90
2022-09-23T15:40:39.508Z,1.77
2022-09-23T15:43:21.505Z,1.65
2022-09-23T15:48:43.302Z,1.70
2022-09-23T15:51:14.838Z,1.50
2022-09-23T15:53:41.391Z,1.85
2022-09-23T15:56:07.972Z,1.80
2022-09-23T15:58:34.814Z,1.80
2022-09-23T16:01:01.761Z,1.92
2022-09-23T16:03:29.035Z,2.15
2022-09-23T16:06:01.098Z,2.20
2022-09-23T16:08:29.459Z,1.95
2022-09-23T16:10:56.709Z,1.75
2022-09-23T16:13:23.351Z,2.10
2022-09-23T16:15:50.228Z,2.15
2022-09-23T16:18:17.189Z,1.92
2022-09-23T16:20:45.726Z,1.70
2022-09-23T16:23:18.712Z,2.08
2022-09-23T16:25:45.312Z,1.80
2022-09-23T16:28:11.846Z,1.90
2022-09-23T16:30:38.426Z,1.85
2022-09-23T16:33:05.064Z,2.00
2022-09-23T16:35:33.658Z,2.00
2022-09-23T16:38:00.476Z,1.77
2022-09-23T16:40:27.397Z,2.13
2022-09-23T16:42:55.911Z,1.83
2022-09-23T16:45:23.320Z,2.17
2022-09-23T16:47:51.526Z,1.90
2022-09-23T16:50:22.673Z,2.00
2022-09-23T16:52:56.205Z,1.60
2022-09-23T16:55:26.087Z,1.77
2022-09-23T16:57:54.127Z,2.20
2022-09-23T17:03:14.508Z,2.03
2022-09-23T17:05:41.047Z,2.40
2022-09-23T17:08:07.796Z,3.05
2022-09-23T17:10:34.433Z,3.22
2022-09-23T17:13:01.085Z,2.85
2022-09-23T17:15:27.674Z,3.60
2022-09-23T17:17:55.651Z,2.85
2022-09-23T17:20:22.397Z,2.45
2022-09-23T17:22:49.031Z,2.40
2022-09-23T17:25:15.882Z,3.22
2022-09-23T17:27:42.822Z,3.88
2022-09-23T17:30:10.213Z,4.95
2022-09-23T17:32:38.231Z,8.05
2022-09-23T17:35:05.361Z,7.50
2022-09-23T17:37:33.035Z,5.70
2022-09-23T17:40:00.082Z,7.07
2022-09-23T17:42:27.697Z,5.60
2022-09-23T17:44:56.254Z,3.67
2022-09-23T17:47:23.299Z,3.28
2022-09-23T17:49:49.967Z,3.10
2022-09-23T17:52:19.636Z,3.80
2022-09-23T17:54:46.462Z,3.35
2022-09-23T17:57:13.021Z,2.80
2022-09-23T17:59:39.844Z,2.83
2022-09-23T18:02:06.519Z,2.35
2022-09-23T18:04:33.146Z,2.10
2022-09-23T18:06:59.753Z,2.42
2022-09-23T18:09:26.466Z,2.92
2022-09-23T18:11:53.181Z,3.58
2022-09-23T18:14:22.155Z,3.90
2022-09-23T18:16:52.704Z,4.30
2022-09-23T18:19:23.140Z,4.53
2022-09-23T18:21:52.431Z,4.50
2022-09-23T18:24:35.094Z,3.90
2022-09-23T18:27:01.858Z,4.32
2022-09-23T18:29:29.100Z,4.00
2022-09-23T18:31:55.940Z,3.80
2022-09-23T18:34:23.707Z,4.10
2022-09-23T18:36:51.715Z,4.00
2022-09-23T18:39:18.428Z,4.00
2022-09-23T18:41:45.052Z,4.15
2022-09-23T18:44:11.725Z,3.72
2022-09-23T18:46:38.379Z,4.13
2022-09-23T18:49:23.554Z,3.90
2022-09-23T18:51:55.917Z,3.65
2022-09-23T18:54:24.448Z,3.70
2022-09-23T18:56:54.353Z,3.90
2022-09-23T18:59:24.771Z,3.33
2022-09-23T19:01:54.908Z,3.40
2022-09-23T19:04:23.725Z,3.13
2022-09-23T19:06:50.431Z,3.35
2022-09-23T19:09:18.286Z,3.63
2022-09-23T19:11:45.493Z,3.25
2022-09-23T19:14:12.945Z,3.47
2022-09-23T19:16:40.710Z,3.00
2022-09-23T19:19:08.187Z,3.50
2022-09-23T19:21:35.189Z,3.30
2022-09-23T19:24:04.971Z,3.70
2022-09-23T19:26:35.055Z,3.88
2022-09-23T19:29:03.258Z,3.17
2022-09-23T19:31:39.222Z,3.47
2022-09-23T19:34:26.081Z,3.47
2022-09-23T19:36:57.497Z,4.10
2022-09-23T19:39:27.288Z,4.27
2022-09-23T19:41:55.856Z,4.60
2022-09-23T19:44:25.166Z,4.15
2022-09-23T19:46:56.343Z,3.85
2022-09-23T19:49:24.745Z,3.88
2022-09-23T19:51:51.687Z,3.92
2022-09-23T19:54:20.692Z,4.43
2022-09-23T19:56:48.759Z,3.78
2022-09-23T19:59:18.724Z,3.95
2022-09-23T20:01:46.479Z,3.72
2022-09-23T20:04:13.398Z,3.90
2022-09-23T20:06:41.070Z,5.20
2022-09-23T20:09:07.673Z,4.10
2022-09-23T20:11:34.660Z,4.00
2022-09-23T20:14:04.875Z,4.03
2022-09-23T20:16:36.856Z,4.00
2022-09-23T20:19:05.774Z,4.05
2022-09-23T20:21:33.849Z,4.25
2022-09-23T20:24:01.300Z,4.22
2022-09-23T20:26:46.583Z,7.25
2022-09-23T20:29:13.266Z,3.90
2022-09-23T20:31:42.777Z,3.53
2022-09-23T20:34:10.559Z,3.58
2022-09-23T20:36:38.981Z,3.80
2022-09-23T20:39:06.208Z,3.45
2022-09-23T20:41:36.740Z,3.70
2022-09-23T20:44:06.444Z,3.70
2022-09-23T20:46:34.273Z,3.90
2022-09-23T20:49:02.073Z,3.67
2022-09-23T20:51:28.859Z,3.75
2022-09-23T20:53:57.342Z,3.58
2022-09-23T20:56:25.198Z,3.42
2022-09-23T20:58:54.128Z,3.40
2022-09-23T21:01:21.825Z,3.92
2022-09-23T21:03:50.321Z,3.80
2022-09-23T21:06:19.052Z,3.95
2022-09-23T21:08:46.607Z,4.45
2022-09-23T21:11:17.954Z,4.07
2022-09-23T21:13:49.758Z,4.33
2022-09-23T21:16:18.570Z,4.07
2022-09-23T21:18:45.810Z,4.40
2022-09-23T21:21:14.126Z,4.35
2022-09-23T21:23:42.070Z,4.22
2022-09-23T21:26:13.905Z,4.13
2022-09-23T21:28:45.067Z,4.38
2022-09-23T21:31:22.637Z,4.53
2022-09-23T21:33:56.907Z,4.95
2022-09-23T21:36:24.846Z,4.20
2022-09-23T21:38:52.525Z,3.63
2022-09-23T21:41:19.759Z,3.97
2022-09-23T21:43:46.295Z,3.78
2022-09-23T21:46:15.528Z,4.03
2022-09-23T21:48:42.648Z,3.55
2022-09-23T21:51:20.973Z,3.22
2022-09-23T21:53:54.604Z,3.70
2022-09-23T21:56:29.410Z,3.80
2022-09-23T21:58:57.796Z,2.88
2022-09-23T22:01:27.097Z,4.07
2022-09-23T22:03:59.010Z,3.78
2022-09-23T22:06:27.630Z,4.30
2022-09-23T22:09:00.077Z,3.83
2022-09-23T22:11:48.086Z,4.00
2022-09-23T22:14:15.817Z,3.65
2022-09-23T22:16:43.238Z,3.80
2022-09-23T22:19:11.553Z,3.65
2022-09-23T22:21:40.358Z,3.60
2022-09-23T22:24:08.852Z,3.28
2022-09-23T22:26:45.558Z,3.67
2022-09-23T22:29:33.292Z,3.50
2022-09-23T22:32:20.026Z,3.58
2022-09-23T22:34:50.572Z,3.38
2022-09-23T22:37:26.232Z,3.42
2022-09-23T22:39:53.542Z,3.22
2022-09-23T22:42:23.368Z,3.70
2022-09-23T22:44:50.993Z,3.28
2022-09-23T22:47:18.597Z,3.38
2022-09-23T22:49:46.521Z,3.05
2022-09-23T22:52:16.071Z,3.10
2022-09-23T22:54:43.344Z,3.20
2022-09-23T22:57:10.979Z,3.17
2022-09-23T22:59:38.017Z,3.33
2022-09-23T23:02:06.611Z,3.63
2022-09-23T23:04:33.919Z,3.00
2022-09-23T23:07:00.502Z,3.75
2022-09-23T23:09:27.543Z,3.33
2022-09-23T23:11:55.452Z,3.50
2022-09-23T23:14:22.187Z,3.30
2022-09-23T23:16:48.782Z,3.40
2022-09-23T23:19:17.597Z,3.50
2022-09-23T23:21:45.297Z,3.65
2022-09-23T23:24:22.959Z,3.72
2022-09-23T23:26:50.915Z,3.33
2022-09-23T23:29:19.790Z,3.50
2022-09-23T23:31:46.882Z,3.63
2022-09-23T23:34:16.314Z,3.80
2022-09-23T23:36:44.324Z,3.55
2022-09-23T23:39:11.699Z,3.10
2022-09-23T23:41:39.560Z,3.72
2022-09-23T23:44:07.873Z,3.50
2022-09-23T23:46:36.554Z,3.58
2022-09-23T23:49:03.853Z,3.45
2022-09-23T23:51:31.018Z,3.50
2022-09-23T23:53:59.121Z,3.63
2022-09-23T23:56:27.285Z,3.88
2022-09-23T23:58:59.443Z,3.42
